Tiempo atmosférico en la estación meteorológica de Morón De La Frontera, Sevilla (87 m.)



Fecha
DESCASC
Temp. máxima en grados centígrados (hora)
DESCASC
Temp. mínima en grados centígrados (hora)
DESCASC
Temp. media en grados centígrados
DESCASC
Racha de viento máxima en m/sg (hora)
DESCASC
Velocidad máxima media en intervalos de 10 minutos(hora)
DESCASC
Precipitaciones diarias en mm
DESCASC
Precipitaciones de 00:00 a 06:00 en mm
DESCASC
Precipitaciones de 06:00 a 12:00 en mm
DESCASC
Precipitaciones de 12:00 a 18:00 en mm
DESCASC
Precipitaciones de 18:00 a 24:00 en mm
DESCASC
05-10-2020 25.9 (17:20) 9.3 (00:00) 17.6 6.67 (15:50) 3.06 (14:10) 0 0 0 0 0
19-10-2020 31.6 (15:30) 11.2 (00:00) 21.4 11.94 (17:50) 8.33 (17:50) 0 0 0 0 0
16-10-2020 25 (16:50) 7.1 (00:00) 16 5.28 (22:40) 3.06 (22:40) 0 0 0 0 0
18-10-2020 29 (16:30) 8.8 (00:00) 18.9 3.89 (03:20) 2.78 (03:20) 0 0 0 0 0
17-10-2020 24.8 (17:30) 8.9 (00:00) 16.8 5 (16:30) 2.5 (02:40) 0 0 0 0 0
15-10-2020 24.3 (16:40) 7.6 (00:00) 15.9 6.11 (17:00) 2.78 (22:00) 0 0 0 0 0
14-10-2020 24.3 (16:40) 12.4 (00:00) 18.3 7.78 (19:10) 5 (19:20) 0 0 0 0 0
13-10-2020 28.1 (18:00) 6.9 (00:00) 17.5 7.5 (21:30) 4.17 (22:10) 0 0 0 0 0
12-10-2020 26 (17:10) 14 (00:00) 20 10.83 (11:00) 6.94 (10:50) 0 0 0 0 0
10-10-2020 30.2 (15:30) 14.2 (00:00) 22.2 6.11 (17:30) 2.78 (21:50) 0 0 0 0 0
11-10-2020 29.7 (17:10) 13.5 (00:00) 21.6 7.5 (23:30) 4.72 (23:20) 0 0 0 0 0
09-10-2020 31.5 (18:20) 15.5 (00:00) 23.5 4.72 (22:50) 3.06 (22:50) 0 0 0 0 0
08-10-2020 33.9 (15:20) 14.6 (00:00) 24.3 6.11 (20:40) 3.61 (20:40) 0 0 0 0 0
07-10-2020 34 (17:20) 14.3 (00:00) 24.2 6.67 (13:00) 4.44 (13:30) 0 0 0 0 0
06-10-2020 -- (--) -- (--) -- 7.22 (15:30) 4.44 (12:30) 0 0 0 0 0
20-09-2020 28.2 (16:50) 15.5 (00:00) 21.9 4.72 (16:30) 2.5 (00:30) 0 0 0 0 0
04-10-2020 24.8 (16:40) 8.7 (00:00) 16.7 9.72 (16:50) 5 (18:30) 0 0 0 0 0
03-10-2020 23.9 (17:40) 8.4 (00:00) 16.1 9.44 (20:40) 5 (20:50) 0 0 0 0 0
01-10-2020 28.2 (17:00) 17.2 (05:50) 22.7 11.39 (19:30) 6.67 (19:20) 0 0 0 0 0
29-09-2020 34 (17:30) 11.2 (00:00) 22.6 6.11 (19:30) 3.89 (00:10) 0 0 0 0 0
28-09-2020 31.8 (17:40) 13.7 (00:00) 22.7 6.67 (15:10) 3.61 (23:59) 0 0 0 0 0
30-09-2020 30.1 (17:40) 16.8 (00:00) 23.4 7.22 (21:10) 4.17 (21:10) 0 0 0 0 0
27-09-2020 28.1 (17:50) 14.2 (00:00) 21.2 7.22 (14:40) 3.89 (21:50) 0 0 0 0 0
26-09-2020 28.3 (17:20) 11.6 (00:00) 19.9 7.22 (14:50) 3.89 (11:20) 0 0 0 0 0
25-09-2020 28.4 (18:00) 17.8 (00:00) 23.1 6.94 (13:40) 3.89 (13:10) 0 0 0 0 0
24-09-2020 32 (17:20) 19.3 (00:00) 25.6 7.5 (19:20) 4.72 (19:20) 0 0 0 0 0
23-09-2020 29 (17:30) 19.5 (00:00) 24.3 8.33 (12:50) 3.89 (06:10) 0 0 0 0 0
22-09-2020 30.8 (15:30) 15.2 (00:00) 23 6.94 (19:20) 3.89 (19:00) 0 0 0 0 0
21-09-2020 30 (17:40) 17.4 (00:00) 23.7 6.94 (23:20) 3.89 (23:20) 0 0 0 0 0
02-10-2020 23.3 (15:50) 14.4 (00:00) 18.8 17.5 (13:40) 10.83 (14:30) 1.7 0 0 1.7 0

Gráficas

Temp. máximas Temp. mínimas Temp. medias Precipitaciones Rachas de viento máximas Velocidades máximas media en intervalos de 10 minutos

Datos horarios

Fecha y hora oficial Temperatura (ºC) Velocidad del viento (km/h) Dirección del viento Racha (km/h) Dirección de racha Precipitación (mm) Presión (hPa) Tendencia (hPa) Humedad (%)
2020-10-19 23:00:00 19.7 5 Nordeste 14 Oeste 0 -- -- 37
2020-10-19 22:00:00 21.9 8 Oeste 18 Oeste 0 -- -- 35
2020-10-19 21:00:00 23 6 Oeste 21 Sudoeste 0 -- -- 31
2020-10-19 20:00:00 25.2 8 Oeste 32 Sudoeste 0 -- -- 27
2020-10-19 19:00:00 27.4 27 Sudoeste 43 Sur 0 -- -- 23
2020-10-19 18:00:00 29.5 30 Sudoeste 43 Sudoeste 0 -- -- 22
2020-10-19 17:00:00 29.9 18 Sudoeste 29 Sudoeste 0 -- -- 22
2020-10-19 16:00:00 29.5 20 Sudoeste 33 Sudoeste 0 -- -- 22
2020-10-19 15:00:00 31.3 3 Norte 10 Norte 0 -- -- 20
2020-10-19 14:00:00 29.3 3 Norte 11 Oeste 0 -- -- 21
2020-10-19 13:00:00 28.3 3 Noroeste 15 Oeste 0 -- -- 22
2020-10-19 12:00:00 25.2 4 Noroeste 12 Oeste 0 -- -- 24
2020-10-19 11:00:00 20 3 Norte 9 Noroeste 0 -- -- 29
2020-10-19 10:00:00 14.7 5 Noroeste 10 Noroeste 0 -- -- 35
2020-10-19 09:00:00 11.8 0 Calma 8 Nordeste 0 -- -- 37
2020-10-19 08:00:00 11.6 2 Norte 8 Noroeste 0 -- -- 36
2020-10-19 07:00:00 12.1 0 Calma 12 Sudeste 0 -- -- 36
2020-10-19 06:00:00 12.5 2 Norte 8 Norte 0 -- -- 37
2020-10-19 05:00:00 12.1 3 Noroeste 6 Noroeste 0 -- -- 38
2020-10-19 04:00:00 13 0 Calma 10 Oeste 0 -- -- 37
2020-10-19 03:00:00 12.8 3 Sudeste 8 Sudeste 0 -- -- 35
2020-10-19 02:00:00 12.9 0 Calma 4 Sur 0 -- -- 33
2020-10-19 01:00:00 16.3 0 Calma 4 Norte 0 -- -- 34
2020-10-19 00:00:00 16.9 0 Calma 4 Norte 0 -- -- 32
2020-10-18 23:00:00 18.5 0 Calma 5 Oeste 0 -- -- 30
2020-10-18 22:00:00 19.8 0 Calma 4 Sudoeste 0 -- -- 29
2020-10-18 21:00:00 22.1 0 Calma 12 Sudoeste 0 -- -- 27
2020-10-18 20:00:00 24.5 0 Calma 5 Norte 0 -- -- 27
2020-10-18 19:00:00 27.2 3 Nordeste 8 Oeste 0 -- -- 24
2020-10-18 18:00:00 28.2 3 Nordeste 12 Nordeste 0 -- -- 24
2020-10-18 17:00:00 28.3 3 Norte 10 Oeste 0 -- -- 24
2020-10-18 16:00:00 28.1 0 Calma 13 Norte 0 -- -- 24
2020-10-18 15:00:00 26.5 5 Norte 14 Noroeste 0 -- -- 27
2020-10-18 14:00:00 25.2 3 Noroeste 12 Norte 0 -- -- 30
2020-10-18 13:00:00 22.9 4 Norte 13 Norte 0 -- -- 34
2020-10-18 12:00:00 20.1 7 Norte 12 Norte 0 -- -- 39
2020-10-18 11:00:00 16.6 6 Este 10 Este 0 -- -- 47
2020-10-18 10:00:00 12 6 Este 11 Este 0 -- -- 57
2020-10-18 09:00:00 8.8 4 Este 8 Sudeste 0 -- -- 65
2020-10-18 08:00:00 9.5 5 Nordeste 7 Nordeste 0 -- -- 66
2020-10-18 07:00:00 9.8 0 Calma 5 Norte 0 -- -- 62
2020-10-18 06:00:00 10.5 4 Sudeste 7 Sur 0 -- -- 60
2020-10-18 05:00:00 11.1 4 Sur 9 Sudeste 0 -- -- 59
2020-10-18 04:00:00 11.2 5 Sur 14 Sudeste 0 -- -- 57
2020-10-18 03:00:00 10.9 6 Sur 10 Sur 0 -- -- 55
2020-10-18 02:00:00 11.6 8 Sudeste 10 Sudeste 0 -- -- 54
2020-10-18 01:00:00 11.9 3 Sur 6 Sudoeste 0 -- -- 50
2020-10-18 00:00:00 13.9 4 Sudoeste 8 Sudoeste 0 -- -- 50
2020-10-17 23:00:00 14.6 6 Sudoeste 9 Sur 0 -- -- 48
2020-10-17 22:00:00 17.2 5 Oeste 14 Oeste 0 -- -- 46
2020-10-17 21:00:00 19.1 0 Calma 7 Oeste 0 -- -- 33
2020-10-17 20:00:00 21.5 5 Norte 12 Norte 0 -- -- 31
2020-10-17 19:00:00 22.7 6 Norte 12 Norte 0 -- -- 30
2020-10-17 18:00:00 23.8 4 Norte 13 Norte 0 -- -- 29
2020-10-17 17:00:00 24.4 0 Calma 18 Oeste 0 -- -- 29
2020-10-17 16:00:00 24.1 5 Oeste 13 Oeste 0 -- -- 30
2020-10-17 15:00:00 23.2 0 Calma 14 Oeste 0 -- -- 31
2020-10-17 14:00:00 22.5 4 Oeste 13 Oeste 0 -- -- 32
2020-10-17 13:00:00 22 3 Oeste 13 Oeste 0 -- -- 38
2020-10-17 12:00:00 19.9 0 Calma 7 Sur 0 -- -- 42
2020-10-17 11:00:00 17.6 0 Calma 5 Sudeste 0 -- -- 43
2020-10-17 10:00:00 13.4 2 Sudeste 5 Este 0 -- -- 54
2020-10-17 09:00:00 9.1 4 Nordeste 5 Nordeste 0 -- -- 60
2020-10-17 08:00:00 9.4 3 Sudeste 5 Sur 0 -- -- 60
2020-10-17 07:00:00 9.9 5 Sudoeste 8 Sur 0 -- -- 60
2020-10-17 06:00:00 10.5 5 Sur 9 Sur 0 -- -- 60
2020-10-17 05:00:00 11.6 8 Sur 12 Sudoeste 0 -- -- 60
2020-10-17 04:00:00 12.3 8 Sur 11 Sur 0 -- -- 61
2020-10-17 03:00:00 13.2 9 Sudoeste 13 Sudoeste 0 -- -- 60
2020-10-17 02:00:00 12.8 7 Sur 10 Sudoeste 0 -- -- 56
2020-10-17 01:00:00 13.5 5 Sur 13 Sudoeste 0 -- -- 50
2020-10-17 00:00:00 15 9 Sudoeste 15 Sudoeste 0 -- -- 51
2020-10-16 23:00:00 16.3 8 Sudoeste 19 Oeste 0 -- -- 53
2020-10-16 22:00:00 17.9 8 Oeste 18 Oeste 0 -- -- 39
2020-10-16 21:00:00 19.3 6 Oeste 19 Oeste 0 -- -- 32
2020-10-16 20:00:00 21.2 2 Noroeste 12 Norte 0 -- -- 29
2020-10-16 19:00:00 22.8 7 Norte 17 Norte 0 -- -- 27
2020-10-16 18:00:00 24.8 0 Calma 13 Sudoeste 0 -- -- 27
2020-10-16 17:00:00 24.7 5 Oeste 15 Oeste 0 -- -- 27
2020-10-16 16:00:00 24.6 4 Oeste 14 Norte 0 -- -- 28
2020-10-16 15:00:00 23.3 3 Norte 13 Sudoeste 0 -- -- 31
2020-10-16 14:00:00 22.6 4 Oeste 13 Oeste 0 -- -- 33
2020-10-16 13:00:00 20.8 2 Norte 7 Norte 0 -- -- 35
2020-10-16 12:00:00 18.5 3 Norte 6 Norte 0 -- -- 38
2020-10-16 11:00:00 16.5 3 Sudoeste 6 Sudoeste 0 -- -- 41
2020-10-16 10:00:00 12 0 Calma 5 Este 0 -- -- 49
2020-10-16 09:00:00 8 0 Calma 3 Sudeste 0 -- -- 56
2020-10-16 08:00:00 7.4 2 Sudeste 5 Sur 0 -- -- 54
2020-10-16 07:00:00 8.1 0 Calma 7 Nordeste 0 -- -- 53
2020-10-16 06:00:00 9.5 4 Nordeste 8 Nordeste 0 -- -- 51
2020-10-16 05:00:00 10.2 7 Sur 9 Sur 0 -- -- 49
2020-10-16 04:00:00 10.9 5 Sudeste 8 Sur 0 -- -- 50
2020-10-16 03:00:00 11.1 6 Sur 10 Sur 0 -- -- 48
2020-10-16 02:00:00 11.4 5 Sur 9 Sur 0 -- -- 46
2020-10-16 01:00:00 12.4 5 Sur 9 Sudeste 0 -- -- 43
2020-10-16 00:00:00 13.2 6 Sur 10 Sudoeste 0 -- -- 42
2020-10-15 23:00:00 15.1 6 Sudoeste 15 Oeste 0 -- -- 38
2020-10-15 22:00:00 16.7 10 Oeste 19 Oeste 0 -- -- 34
2020-10-15 21:00:00 18.3 10 Oeste 19 Oeste 0 -- -- 31
2020-10-15 20:00:00 20.5 9 Oeste 18 Oeste 0 -- -- 28
2020-10-15 19:00:00 22.3 4 Oeste 13 Norte 0 -- -- 24
2020-10-15 18:00:00 23.5 5 Oeste 20 Sudoeste 0 -- -- 24
2020-10-15 17:00:00 23 9 Oeste 22 Sudoeste 0 -- -- 24
2020-10-15 16:00:00 23.2 9 Oeste 17 Sudoeste 0 -- -- 23
2020-10-15 15:00:00 23.5 4 Oeste 15 Sudoeste 0 -- -- 25
2020-10-15 14:00:00 22.1 4 Norte 10 Norte 0 -- -- 30
2020-10-15 13:00:00 20.4 3 Este 8 Nordeste 0 -- -- 34
2020-10-15 12:00:00 19.1 0 Calma 8 Oeste 0 -- -- 40
2020-10-15 11:00:00 16.7 2 Oeste 5 Oeste 0 -- -- 49
2020-10-15 10:00:00 12.4 4 Sur 6 Sur 0 -- -- 61
2020-10-15 09:00:00 7.7 5 Sur 9 Sur 0 -- -- 68
2020-10-15 08:00:00 8 6 Sur 7 Sur 0 -- -- 67
2020-10-15 07:00:00 8 5 Sur 7 Sudoeste 0 -- -- 64
2020-10-15 06:00:00 9.2 3 Sur 8 Sur 0 -- -- 65
2020-10-15 05:00:00 9.8 6 Sur 9 Sur 0 -- -- 63
2020-10-15 04:00:00 10.7 5 Sudoeste 8 Sudoeste 0 -- -- 61
2020-10-15 03:00:00 11.5 5 Sur 10 Sudoeste 0 -- -- 58
2020-10-15 02:00:00 14.2 8 Sudoeste 16 Sudoeste 0 -- -- 56
2020-10-15 01:00:00 14.5 7 Sudoeste 14 Sudoeste 0 -- -- 53
2020-10-15 00:00:00 15.7 8 Sudoeste 17 Sudoeste 0 -- -- 49
2020-10-14 23:00:00 16.5 10 Sudoeste 18 Sudoeste 0 -- -- 46
2020-10-14 22:00:00 17.5 10 Sudoeste 21 Sudoeste 0 -- -- 43
2020-10-14 21:00:00 18.5 11 Sudoeste 26 Sudoeste 0 -- -- 42
2020-10-14 20:00:00 20.1 16 Sudoeste 28 Sudoeste 0 -- -- 38
2020-10-14 19:00:00 22.5 13 Oeste 24 Oeste 0 -- -- 31
2020-10-14 18:00:00 23 11 Oeste 26 Sudoeste 0 -- -- 31
2020-10-14 17:00:00 24.2 4 Oeste 26 Oeste 0 -- -- 29
2020-10-14 16:00:00 22.8 7 Oeste 25 Oeste 0 -- -- 33
2020-10-14 15:00:00 21.8 7 Oeste 23 Oeste 0 -- -- 37
2020-10-14 14:00:00 21 6 Oeste 18 Oeste 0 -- -- 40
2020-10-14 13:00:00 20.2 5 Oeste 21 Sudoeste 0 -- -- 42
2020-10-14 12:00:00 18.5 2 Noroeste 13 Sudoeste 0 -- -- 46
2020-10-14 11:00:00 17.2 3 Oeste 10 Oeste 0 -- -- 52
2020-10-14 10:00:00 14.4 7 Sudoeste 14 Oeste 0 -- -- 59
2020-10-14 09:00:00 12.5 8 Sudoeste 19 Sudoeste 0 -- -- 65
2020-10-14 08:00:00 12.9 10 Sudoeste 18 Sudoeste 0 -- -- 63
2020-10-14 07:00:00 14.4 9 Sudoeste 15 Sudoeste 0 -- -- 62
2020-10-14 06:00:00 15.3 9 Sudoeste 17 Sudoeste 0 -- -- 53
2020-10-14 05:00:00 16.1 11 Sudoeste 19 Sudoeste 0 -- -- 45
2020-10-14 04:00:00 17 12 Sudoeste 25 Sudoeste 0 -- -- 41
2020-10-14 03:00:00 17.3 15 Sudoeste 24 Sudoeste 0 -- -- 37
2020-10-14 02:00:00 16.7 10 Sudoeste 19 Sudoeste 0 -- -- 36
2020-10-14 01:00:00 18 11 Sudoeste 20 Sudoeste 0 -- -- 37
2020-10-14 00:00:00 18.1 11 Sudoeste 23 Sudoeste 0 -- -- 38
2020-10-13 23:00:00 18.5 12 Sudoeste 26 Oeste 0 -- -- 34
2020-10-13 22:00:00 20 13 Oeste 27 Oeste 0 -- -- 27
2020-10-13 21:00:00 22.6 11 Oeste 22 Oeste 0 -- -- 23
2020-10-13 20:00:00 25 7 Oeste 13 Oeste 0 -- -- 21
2020-10-13 19:00:00 27.5 3 Noroeste 11 Norte 0 -- -- 21
2020-10-13 18:00:00 27.7 3 Noroeste 14 Nordeste 0 -- -- 21
2020-10-13 17:00:00 27.6 3 Nordeste 16 Norte 0 -- -- 20
2020-10-13 16:00:00 27 8 Nordeste 21 Nordeste 0 -- -- 21
2020-10-13 15:00:00 26.2 12 Nordeste 22 Nordeste 0 -- -- 21
2020-10-13 14:00:00 25.1 10 Nordeste 23 Nordeste 0 -- -- 23
2020-10-13 13:00:00 23.2 11 Nordeste 19 Nordeste 0 -- -- 27
2020-10-13 12:00:00 20.3 12 Nordeste 19 Este 0 -- -- 32
2020-10-13 11:00:00 17.2 8 Este 13 Sudeste 0 -- -- 35
2020-10-13 10:00:00 -- -- -- -- -- -- -- -- --
2020-10-13 09:00:00 8 4 Este 5 Sudeste 0 -- -- 38
2020-10-13 08:00:00 8.7 0 Calma 6 Nordeste 0 -- -- 37
2020-10-13 07:00:00 7.6 2 Nordeste 5 Este 0 -- -- 34
2020-10-13 06:00:00 9.9 0 Calma 6 Este 0 -- -- 34
2020-10-13 05:00:00 10.1 0 Calma 8 Este 0 -- -- 32
2020-10-13 04:00:00 9.7 0 Calma 4 Sudeste 0 -- -- 31
2020-10-13 03:00:00 11.9 0 Calma 9 Nordeste 0 -- -- 30
2020-10-13 02:00:00 12.3 3 Nordeste 4 Norte 0 -- -- 27
2020-10-13 01:00:00 -- -- -- -- -- -- -- -- --
2020-10-13 00:00:00 14.4 2 Nordeste 8 Este 0 -- -- 24
2020-10-12 23:00:00 17.2 6 Este 11 Este 0 -- -- 23
2020-10-12 22:00:00 18.6 5 Este 9 Este 0 -- -- 21
2020-10-12 21:00:00 20.7 5 Este 12 Este 0 -- -- 20
2020-10-12 20:00:00 22.6 6 Este 17 Este 0 -- -- 18
2020-10-12 19:00:00 24.7 12 Este 29 Este 0 -- -- 16
2020-10-12 18:00:00 -- -- -- -- -- -- -- -- --
2020-10-12 17:00:00 25.8 19 Nordeste 32 Nordeste 0 -- -- 17
2020-10-12 16:00:00 25.5 17 Nordeste 25 Este 0 -- -- 17
2020-10-12 15:00:00 25.7 14 Nordeste 30 Nordeste 0 -- -- 20
2020-10-12 14:00:00 23.8 17 Nordeste 32 Nordeste 0 -- -- 22
2020-10-12 13:00:00 22.6 20 Nordeste 35 Este 0 -- -- 24
2020-10-12 12:00:00 20.7 20 Este 39 Este 0 -- -- 26
2020-10-12 11:00:00 18.6 24 Nordeste 39 Este 0 -- -- 29
2020-10-12 10:00:00 16.4 21 Este 37 Este 0 -- -- 31
2020-10-12 09:00:00 14.5 17 Este 28 Este 0 -- -- 31
2020-10-12 08:00:00 14.7 17 Nordeste 27 Nordeste 0 -- -- 30
2020-10-12 07:00:00 15.1 14 Este 30 Este 0 -- -- 29
2020-10-12 06:00:00 16 16 Este 31 Este 0 -- -- 27
2020-10-12 05:00:00 16.7 15 Este 25 Este 0 -- -- 27
2020-10-12 04:00:00 -- -- -- -- -- -- -- -- --
2020-10-12 03:00:00 17.6 11 Nordeste 23 Este 0 -- -- 25
2020-10-12 02:00:00 19.4 11 Este 22 Este 0 -- -- 23
2020-10-12 01:00:00 20.3 12 Este 22 Este 0 -- -- 24
2020-10-12 00:00:00 21.4 14 Este 27 Este 0 -- -- 23
2020-10-11 23:00:00 22.1 11 Este 18 Nordeste 0 -- -- 29
2020-10-11 22:00:00 22.2 2 Este 9 Este 0 -- -- 29
2020-10-11 21:00:00 -- -- -- -- -- -- -- -- --
2020-10-11 20:00:00 -- -- -- -- -- -- -- -- --
2020-10-11 19:00:00 28.6 5 Este 23 Nordeste 0 -- -- 24
2020-10-11 18:00:00 29.3 14 Nordeste 25 Nordeste 0 -- -- 25
2020-10-11 17:00:00 29.5 6 Nordeste 19 Sudeste 0 -- -- 28
2020-10-11 16:00:00 28.2 7 Nordeste 18 Norte 0 -- -- 34
2020-10-11 15:00:00 27 6 Este 15 Nordeste 0 -- -- 41
2020-10-11 14:00:00 25.1 7 Norte 14 Norte 0 -- -- 46
2020-10-11 13:00:00 23.4 4 Noroeste 9 Noroeste 0 -- -- 55
2020-10-11 12:00:00 21.1 4 Nordeste 14 Nordeste 0 -- -- 64
2020-10-11 11:00:00 19.4 4 Norte 9 Nordeste 0 -- -- 72
2020-10-11 10:00:00 18.1 4 Este 9 Nordeste 0 -- -- 71
2020-10-11 09:00:00 13.8 5 Este 8 Sur 0 -- -- 70
2020-10-11 08:00:00 14.2 6 Sur 8 Sudeste 0 -- -- 70
2020-10-11 07:00:00 14.3 5 Sur 8 Sur 0 -- -- 67
2020-10-11 06:00:00 15.3 6 Sudoeste 9 Sudoeste 0 -- -- 67
2020-10-11 05:00:00 16.3 5 Sudoeste 8 Sudoeste 0 -- -- 68
2020-10-11 04:00:00 16.5 4 Sur 11 Sudoeste 0 -- -- 70
2020-10-11 03:00:00 17.9 7 Sudoeste 10 Sudoeste 0 -- -- 72
2020-10-11 02:00:00 18.8 5 Sudoeste 14 Oeste 0 -- -- 70
2020-10-11 01:00:00 19.3 8 Sudoeste 13 Sudoeste 0 -- -- 65
2020-10-11 00:00:00 20.1 8 Sudoeste 16 Sudoeste 0 -- -- 62
2020-10-10 23:00:00 20.8 8 Sudoeste 17 Sudoeste 0 -- -- 59
2020-10-10 22:00:00 22 9 Sudoeste 16 Oeste 0 -- -- 52
2020-10-10 21:00:00 24.1 6 Oeste 19 Oeste 0 -- -- 42
2020-10-10 20:00:00 26.1 6 Oeste 18 Oeste 0 -- -- 38
2020-10-10 19:00:00 28.5 5 Oeste 15 Oeste 0 -- -- 33
2020-10-10 18:00:00 29.6 2 Noroeste 22 Oeste 0 -- -- 32
2020-10-10 17:00:00 30.1 5 Oeste 21 Oeste 0 -- -- 31
2020-10-10 16:00:00 29 6 Oeste 17 Oeste 0 -- -- 34
2020-10-10 15:00:00 29.2 7 Oeste 19 Oeste 0 -- -- 33
2020-10-10 14:00:00 28.8 4 Oeste 11 Oeste 0 -- -- 35
2020-10-10 13:00:00 26.5 2 Noroeste 7 Norte 0 -- -- 39
2020-10-10 12:00:00 24.5 3 Norte 8 Nordeste 0 -- -- 45
2020-10-10 11:00:00 22.2 4 Nordeste 8 Nordeste 0 -- -- 49
2020-10-10 10:00:00 18.9 0 Calma 4 Sudeste 0 -- -- 53
2020-10-10 09:00:00 14.6 3 Este 5 Este 0 -- -- 62
2020-10-10 08:00:00 14.4 2 Este 5 Este 0 -- -- 58
2020-10-10 07:00:00 15.2 2 Sudeste 5 Sudeste 0 -- -- 58
2020-10-10 06:00:00 15.4 4 Sur 10 Sur 0 -- -- 53
2020-10-10 05:00:00 16.8 3 Sudoeste 7 Sur 0 -- -- 53
2020-10-10 04:00:00 17.4 5 Sur 9 Sur 0 -- -- 52
2020-10-10 03:00:00 17.8 5 Sur 9 Sudoeste 0 -- -- 46
2020-10-10 02:00:00 18.9 7 Sur 12 Sur 0 -- -- 45
2020-10-10 01:00:00 20.7 7 Sudoeste 16 Sudoeste 0 -- -- 43
2020-10-10 00:00:00 21.2 8 Sudoeste 15 Sudoeste 0 -- -- 40
2020-10-09 23:00:00 22.3 9 Sudoeste 17 Sudoeste 0 -- -- 35
2020-10-09 22:00:00 22.5 4 Sur 8 Oeste 0 -- -- 32
2020-10-09 21:00:00 25.5 3 Oeste 7 Sudoeste 0 -- -- 31
2020-10-09 20:00:00 27.6 0 Calma 10 Norte 0 -- -- 29
2020-10-09 19:00:00 30.3 4 Oeste 13 Oeste 0 -- -- 27
2020-10-09 18:00:00 31 4 Oeste 15 Sudoeste 0 -- -- 26
2020-10-09 17:00:00 30.9 2 Noroeste 12 Norte 0 -- -- 26
2020-10-09 16:00:00 30.5 0 Calma 10 Nordeste 0 -- -- 27
2020-10-09 15:00:00 29.6 2 Norte 12 Norte 0 -- -- 28
2020-10-09 14:00:00 28.7 5 Nordeste 15 Norte 0 -- -- 31
2020-10-09 13:00:00 26.2 4 Norte 12 Nordeste 0 -- -- 34
2020-10-09 12:00:00 24.3 6 Norte 9 Norte 0 -- -- 38
2020-10-09 11:00:00 22.2 3 Norte 5 Nordeste 0 -- -- 39
2020-10-09 10:00:00 20 2 Sur 8 Sudeste 0 -- -- 42
2020-10-09 09:00:00 15.8 5 Sudeste 7 Sudeste 0 -- -- 47
2020-10-09 08:00:00 15.8 5 Sur 6 Sudeste 0 -- -- 46
2020-10-09 07:00:00 15.7 5 Sudeste 9 Sur 0 -- -- 45
2020-10-09 06:00:00 15.9 6 Sur 9 Sur 0 -- -- 44
2020-10-09 05:00:00 16.8 4 Sudeste 9 Sur 0 -- -- 43
2020-10-09 04:00:00 16.7 6 Sur 9 Sur 0 -- -- 42
2020-10-09 03:00:00 17.3 5 Sur 8 Sudeste 0 -- -- 41
2020-10-09 02:00:00 18.1 4 Sur 9 Sur 0 -- -- 39
2020-10-09 01:00:00 18.7 6 Sur 7 Sur 0 -- -- 38
2020-10-09 00:00:00 20.8 2 Sur 8 Oeste 0 -- -- 38
2020-10-08 23:00:00 23.3 6 Oeste 12 Sudoeste 0 -- -- 36
2020-10-08 22:00:00 24.7 8 Sudoeste 17 Oeste 0 -- -- 34
2020-10-08 21:00:00 27.3 11 Oeste 22 Sudoeste 0 -- -- 27
2020-10-08 20:00:00 29.6 6 Oeste 12 Oeste 0 -- -- 23
2020-10-08 19:00:00 32.6 2 Oeste 14 Noroeste 0 -- -- 20
2020-10-08 18:00:00 33.4 4 Oeste 21 Oeste 0 -- -- 20
2020-10-08 17:00:00 33.5 4 Sudoeste 21 Oeste 0 -- -- 20
2020-10-08 16:00:00 33.3 4 Noroeste 17 Sudoeste 0 -- -- 20
2020-10-08 15:00:00 33.1 4 Oeste 16 Oeste 0 -- -- 21
2020-10-08 14:00:00 32.4 4 Oeste 12 Sudoeste 0 -- -- 23
2020-10-08 13:00:00 29.4 3 Norte 10 Norte 0 -- -- 26
2020-10-08 12:00:00 -- 2 Norte 6 Norte 0 -- -- 31
2020-10-08 11:00:00 21.6 0 Calma 5 Este 0 -- -- 38
2020-10-08 10:00:00 18.6 3 Nordeste 5 Oeste 0 -- -- 42
2020-10-08 09:00:00 14.6 0 Calma 6 Noroeste 0 -- -- 45
2020-10-08 08:00:00 15.7 0 Calma 5 Este 0 -- -- 45
2020-10-08 07:00:00 17.1 3 Norte 9 Nordeste 0 -- -- 43
2020-10-08 06:00:00 16.9 6 Este 9 Este 0 -- -- 42
2020-10-08 05:00:00 17.9 4 Nordeste 6 Este 0 -- -- 41
2020-10-08 04:00:00 18.7 4 Sudeste 8 Sur 0 -- -- 39
2020-10-08 03:00:00 19.1 7 Sur 11 Sur 0 -- -- 38
2020-10-08 02:00:00 19.4 4 Sur 10 Sudoeste 0 -- -- 37
2020-10-08 01:00:00 20.2 6 Sur 11 Sudeste 0 -- -- 38
2020-10-08 00:00:00 22.1 6 Sur 13 Oeste 0 -- -- 35
2020-10-07 23:00:00 24.5 8 Sudoeste 18 Oeste 0 -- -- 31
2020-10-07 22:00:00 25.3 5 Sur 15 Nordeste 0 -- -- 25
2020-10-07 21:00:00 28 8 Nordeste 11 Nordeste 0 -- -- 24
2020-10-07 20:00:00 30.5 6 Nordeste 13 Nordeste 0 -- -- 22
2020-10-07 19:00:00 32.6 10 Nordeste 17 Norte 0 -- -- 20
2020-10-07 18:00:00 33.6 4 Nordeste 16 Este 0 -- -- 20
2020-10-07 17:00:00 33.7 3 Nordeste 18 Nordeste 0 -- -- 21
2020-10-07 16:00:00 33.1 5 Nordeste 18 Norte 0 -- -- 21
2020-10-07 15:00:00 32.6 8 Nordeste 22 Nordeste 0 -- -- 23
2020-10-07 14:00:00 31 13 Este 24 Nordeste 0 -- -- 26
2020-10-07 13:00:00 29.2 14 Nordeste 24 Nordeste 0 -- -- 28
2020-10-07 12:00:00 26.3 13 Nordeste 20 Este 0 -- -- 33
2020-10-07 11:00:00 23.4 12 Nordeste 18 Nordeste 0 -- -- 36
2020-10-07 10:00:00 19.3 9 Nordeste 16 Nordeste 0 -- -- 42
2020-10-07 09:00:00 15.5 8 Nordeste 11 Nordeste 0 -- -- 48
2020-10-07 08:00:00 14.7 5 Este 10 Nordeste 0 -- -- 45
2020-10-07 07:00:00 14.5 7 Este 9 Este 0 -- -- 42
2020-10-07 06:00:00 15.1 3 Este 6 Este 0 -- -- 41
2020-10-07 05:00:00 15.3 4 Sudeste 6 Sudeste 0 -- -- 38
2020-10-07 04:00:00 16.4 2 Sudeste 6 Sudeste 0 -- -- 38
2020-10-07 03:00:00 16.8 2 Sur 12 Sur 0 -- -- 36
2020-10-07 02:00:00 17.4 4 Sur 12 Sudoeste 0 -- -- 34
2020-10-07 01:00:00 18.4 2 Sur 12 Sur 0 -- -- 35
2020-10-07 00:00:00 19.9 2 Oeste 7 Oeste 0 -- -- 34
2020-10-06 23:00:00 20.6 3 Sur 5 Sur 0 -- -- 31
2020-10-06 22:00:00 22.8 3 Sudeste 7 Este 0 -- -- 30
2020-10-06 21:00:00 24.9 3 Sudeste 7 Sudeste 0 -- -- 29
2020-10-06 20:00:00 27.2 4 Este 13 Este 0 -- -- 27
2020-10-06 19:00:00 28.3 8 Este 19 Nordeste 0 -- -- 27
2020-10-06 18:00:00 28.5 10 Nordeste 21 Este 0 -- -- 25
2020-10-06 17:00:00 28.5 10 Nordeste 24 Nordeste 0 -- -- 25
2020-10-06 16:00:00 27.9 12 Nordeste 26 Nordeste 0 -- -- 26
2020-10-06 15:00:00 27.1 11 Nordeste 25 Este 0 -- -- 26
2020-10-06 14:00:00 25.9 14 Nordeste 25 Nordeste 0 -- -- 27
2020-10-06 13:00:00 24.7 14 Nordeste 23 Nordeste 0 -- -- 30
2020-10-06 12:00:00 22.2 13 Nordeste 19 Nordeste 0 -- -- 34
2020-10-06 11:00:00 20.1 10 Este 15 Nordeste 0 -- -- 39
2020-10-06 10:00:00 16.1 7 Este 11 Este 0 -- -- 47
2020-10-06 09:00:00 12.3 5 Este 7 Nordeste 0 -- -- 51
2020-10-06 08:00:00 11.8 2 Nordeste 5 Nordeste 0 -- -- 49
2020-10-06 07:00:00 12 4 Este 7 Sudeste 0 -- -- 49
2020-10-06 06:00:00 12 3 Sudeste 7 Sur 0 -- -- 46
2020-10-06 05:00:00 12.1 4 Sudeste 8 Sudeste 0 -- -- 43
2020-10-06 04:00:00 12.3 4 Sudeste 9 Sur 0 -- -- 42
2020-10-06 03:00:00 12.7 5 Sur 9 Sur 0 -- -- 42
2020-10-06 02:00:00 13.3 2 Sur 11 Sur 0 -- -- 38
2020-10-06 01:00:00 14.3 4 Sur 7 Sur 0 -- -- 35
2020-10-06 00:00:00 15.4 4 Sur 6 Sudoeste 0 -- -- 33
2020-10-05 23:00:00 17 3 Sur 9 Nordeste 0 -- -- 31
2020-10-05 22:00:00 20.9 8 Nordeste 11 Nordeste 0 -- -- 28
2020-10-05 21:00:00 22 6 Norte 13 Norte 0 -- -- 27
2020-10-05 20:00:00 24 8 Norte 17 Nordeste 0 -- -- 24
2020-10-05 19:00:00 24.9 9 Norte 21 Norte 0 -- -- 24
2020-10-05 18:00:00 25.1 5 Norte 21 Norte 0 -- -- 27
2020-10-05 17:00:00 24.9 8 Norte 22 Norte 0 -- -- 27
2020-10-05 16:00:00 23.8 7 Nordeste 24 Nordeste 0 -- -- 29
2020-10-05 15:00:00 22.9 10 Nordeste 21 Nordeste 0 -- -- 31
2020-10-05 14:00:00 21.7 5 Nordeste 21 Norte 0 -- -- 34
2020-10-05 13:00:00 20.7 9 Norte 22 Nordeste 0 -- -- 38
2020-10-05 12:00:00 19.1 5 Norte 11 Nordeste 0 -- -- 42
2020-10-05 11:00:00 17.5 5 Nordeste 10 Nordeste 0 -- -- 48
2020-10-05 10:00:00 15.4 5 Este 8 Este 0 -- -- 56
2020-10-05 09:00:00 10.2 5 Sudeste 7 Sudeste 0 -- -- 67
2020-10-05 08:00:00 9.6 4 Sur 6 Sur 0 -- -- 67
2020-10-05 07:00:00 10.1 0 Calma 6 Sudeste 0 -- -- 67
2020-10-05 06:00:00 10.7 3 Sur 5 Sudeste 0 -- -- 67
2020-10-05 05:00:00 12.9 0 Calma 8 Norte 0 -- -- 64
2020-10-05 04:00:00 14.1 0 Calma 5 Oeste 0 -- -- 66
2020-10-05 03:00:00 14.8 3 Oeste 8 Oeste 0 -- -- 65
2020-10-05 02:00:00 15.8 4 Sudoeste 9 Sudoeste 0 -- -- 65
2020-10-05 01:00:00 17 5 Sudoeste 12 Sudoeste 0 -- -- 63
2020-10-05 00:00:00 17.9 6 Sudoeste 11 Sudoeste 0 -- -- 62
2020-10-04 23:00:00 18.2 7 Sudoeste 12 Sudoeste 0 -- -- 62
2020-10-04 22:00:00 19 10 Oeste 18 Oeste 0 -- -- 60
2020-10-04 21:00:00 19.5 12 Oeste 25 Oeste 0 -- -- 55
2020-10-04 20:00:00 20.2 13 Oeste 30 Oeste 0 -- -- 49
2020-10-04 19:00:00 21.5 18 Oeste 31 Oeste 0 -- -- 42
2020-10-04 18:00:00 22.7 14 Oeste 31 Oeste 0 -- -- 36
2020-10-04 17:00:00 23.8 8 Oeste 35 Oeste 0 -- -- 34
2020-10-04 16:00:00 24.1 8 Oeste 24 Sudoeste 0 -- -- 32
2020-10-04 15:00:00 22.3 12 Oeste 28 Oeste 0 -- -- 32
2020-10-04 14:00:00 22.5 9 Oeste 25 Oeste 0 -- -- 33
2020-10-04 13:00:00 20.8 9 Oeste 17 Sudoeste 0 -- -- 35
2020-10-04 12:00:00 20 5 Oeste 12 Sur 0 -- -- 39
2020-10-04 11:00:00 18 4 Sur 9 Sudoeste 0 -- -- 47
2020-10-04 10:00:00 13.8 5 Sur 6 Sur 0 -- -- 61
2020-10-04 09:00:00 9.3 4 Sur 5 Sur 0 -- -- 70
2020-10-04 08:00:00 9.4 3 Sur 7 Sur 0 -- -- 70
2020-10-04 07:00:00 10.2 4 Sur 8 Sur 0 -- -- 69
2020-10-04 06:00:00 10.4 5 Sur 8 Sur 0 -- -- 67
2020-10-04 05:00:00 11.2 7 Sur 10 Sur 0 -- -- 66
2020-10-04 04:00:00 11.5 0 Calma 10 Sudoeste 0 -- -- 63
2020-10-04 03:00:00 12.1 6 Sudoeste 10 Sudoeste 0 -- -- 62
2020-10-04 02:00:00 13 4 Sur 8 Sur 0 -- -- 60
2020-10-04 01:00:00 13.8 6 Sur 12 Sudoeste 0 -- -- 58
2020-10-04 00:00:00 15.3 7 Sudoeste 17 Oeste 0 -- -- 57
2020-10-03 23:00:00 16.5 12 Oeste 26 Oeste 0 -- -- 54
2020-10-03 22:00:00 17.1 12 Oeste 31 Oeste 0 -- -- 49
2020-10-03 21:00:00 18.2 18 Oeste 34 Oeste 0 -- -- 43
2020-10-03 20:00:00 20.4 12 Oeste 23 Oeste 0 -- -- 31
2020-10-03 19:00:00 22.6 6 Oeste 21 Sudoeste 0 -- -- 24
2020-10-03 18:00:00 22.5 12 Oeste 23 Sudoeste 0 -- -- 26
2020-10-03 17:00:00 23.1 4 Noroeste 18 Norte 0 -- -- 26
2020-10-03 16:00:00 21.4 6 Sudoeste 23 Oeste 0 -- -- 28
2020-10-03 15:00:00 20.9 4 Oeste 17 Oeste 0 -- -- 31
2020-10-03 14:00:00 19.6 4 Noroeste 14 Noroeste 0 -- -- 35
2020-10-03 13:00:00 18.5 3 Norte 13 Oeste 0 -- -- 39
2020-10-03 12:00:00 17.3 3 Norte 13 Sudoeste 0 -- -- 46
2020-10-03 11:00:00 15 8 Sudoeste 19 Sudoeste 0 -- -- 55
2020-10-03 10:00:00 12.9 8 Sudoeste 15 Sudoeste 0 -- -- 62
2020-10-03 09:00:00 9.6 6 Sudoeste 15 Sudoeste 0 -- -- 69
2020-10-03 08:00:00 8.5 5 Sur 13 Oeste 0 -- -- 67
2020-10-03 07:00:00 10.1 9 Sudoeste 17 Oeste 0 -- -- 63
2020-10-03 06:00:00 10.7 8 Oeste 14 Oeste 0 -- -- 61
2020-10-03 05:00:00 11.3 10 Oeste 15 Oeste 0 -- -- 59
2020-10-03 04:00:00 11.3 7 Oeste 15 Oeste 0 -- -- 58
2020-10-03 03:00:00 12.5 8 Oeste 16 Oeste 0 -- -- 56
2020-10-03 02:00:00 13.1 7 Oeste 13 Oeste 0 -- -- 56
2020-10-03 01:00:00 13.5 4 Noroeste 11 Noroeste 0 -- -- 58
2020-10-03 00:00:00 14.4 4 Noroeste 13 Noroeste 0 -- -- 56
2020-10-02 23:00:00 15.4 3 Noroeste 12 Noroeste 0 -- -- 53
2020-10-02 22:00:00 16.1 3 Noroeste 12 Noroeste 0 -- -- 54
2020-10-02 21:00:00 17.8 3 Noroeste 34 Norte 0 -- -- 49
2020-10-02 20:00:00 19.2 15 Norte 28 Noroeste 0 -- -- 52
2020-10-02 19:00:00 20.5 4 Noroeste 26 Noroeste 0 -- -- 61
2020-10-02 18:00:00 21.4 4 Noroeste 42 Oeste 0.9 -- -- 72
2020-10-02 17:00:00 21.5 15 Oeste 57 Oeste 0.8 -- -- 64
2020-10-02 16:00:00 23 35 Oeste 62 Oeste 0 -- -- 55
2020-10-02 15:00:00 21.8 37 Oeste 60 Oeste 0 -- -- 63
2020-10-02 14:00:00 20.6 35 Oeste 63 Oeste 0 -- -- 67
2020-10-02 13:00:00 21.8 34 Sudoeste 60 Sudoeste 0 -- -- 54
2020-10-02 12:00:00 20.9 34 Sudoeste 50 Sudoeste 0 -- -- 57
2020-10-02 11:00:00 19.4 25 Sudoeste 43 Oeste 0 -- -- 61
2020-10-02 10:00:00 18.2 17 Sudoeste 30 Sudoeste 0 -- -- 61
2020-10-02 09:00:00 17.5 14 Sudoeste 31 Sudoeste 0 -- -- 63
2020-10-02 08:00:00 16.3 14 Sudoeste 26 Oeste 0 -- -- 63
2020-10-02 07:00:00 15.9 12 Oeste 20 Oeste 0 -- -- 63
2020-10-02 06:00:00 16.1 12 Oeste 21 Sudoeste 0 -- -- 62
2020-10-02 05:00:00 16.7 14 Oeste 23 Oeste 0 -- -- 60
2020-10-02 04:00:00 17 12 Oeste 21 Sudoeste 0 -- -- 60
2020-10-02 03:00:00 18 11 Oeste 19 Oeste 0 -- -- 57
2020-10-02 02:00:00 18.5 10 Oeste 15 Oeste 0 -- -- 59
2020-10-02 01:00:00 19.3 8 Oeste 18 Oeste 0 -- -- 63
2020-10-02 00:00:00 20.1 13 Oeste 24 Sudoeste 0 -- -- 64
2020-10-01 23:00:00 20.5 12 Oeste 28 Oeste 0 -- -- 63
2020-10-01 22:00:00 21.3 14 Oeste 32 Oeste 0 -- -- 56
2020-10-01 21:00:00 22.2 19 Oeste 37 Oeste 0 -- -- 51
2020-10-01 20:00:00 22.8 23 Oeste 41 Oeste 0 -- -- 47
2020-10-01 19:00:00 25.7 23 Sudoeste 36 Sudoeste 0 -- -- 34
2020-10-01 18:00:00 27.2 11 Oeste 27 Oeste 0 -- -- 29
2020-10-01 17:00:00 27.9 8 Oeste 22 Oeste 0 -- -- 27
2020-10-01 16:00:00 26.7 3 Oeste 18 Oeste 0 -- -- 30
2020-10-01 15:00:00 25.9 6 Oeste 21 Oeste 0 -- -- 31
2020-10-01 14:00:00 24.3 11 Oeste 23 Oeste 0 -- -- 30
2020-10-01 13:00:00 23.1 9 Oeste 20 Oeste 0 -- -- 43
2020-10-01 12:00:00 21.7 9 Oeste 21 Oeste 0 -- -- 54
2020-10-01 11:00:00 20.9 12 Oeste 20 Sudoeste 0 -- -- 62
2020-10-01 10:00:00 19.2 12 Sudoeste 20 Sudoeste 0 -- -- 74
2020-10-01 09:00:00 18.4 9 Oeste 20 Sudoeste 0 -- -- 78
2020-10-01 08:00:00 17.7 6 Sudoeste 13 Sudoeste 0 -- -- 73
2020-10-01 07:00:00 17.7 7 Sudoeste 15 Oeste 0 -- -- 74
2020-10-01 06:00:00 17.4 9 Sudoeste 15 Sudoeste 0 -- -- 71
2020-10-01 05:00:00 17.7 7 Sudoeste 11 Sudoeste 0 -- -- 70
2020-10-01 04:00:00 18.4 6 Sudoeste 12 Sudoeste 0 -- -- 68
2020-10-01 03:00:00 18.8 7 Sudoeste 12 Sudoeste 0 -- -- 67
2020-10-01 02:00:00 19.3 6 Sudoeste 12 Sur 0 -- -- 71
2020-10-01 01:00:00 20.1 9 Sudoeste 13 Sudoeste 0 -- -- 71
2020-10-01 00:00:00 20.7 6 Sudoeste 15 Oeste 0 -- -- 70
2020-09-30 23:00:00 21.4 8 Oeste 16 Oeste 0 -- -- 66
2020-09-30 22:00:00 22.8 3 Oeste 26 Oeste 0 -- -- 56
2020-09-30 21:00:00 24.3 13 Oeste 22 Oeste 0 -- -- 52
2020-09-30 20:00:00 25.8 5 Oeste 17 Norte 0 -- -- 44
2020-09-30 19:00:00 28.2 4 Noroeste 17 Noroeste 0 -- -- 39
2020-09-30 18:00:00 29.7 4 Noroeste 21 Noroeste 0 -- -- 34
2020-09-30 17:00:00 29.6 5 Oeste 18 Sudoeste 0 -- -- 31
2020-09-30 16:00:00 29 5 Noroeste 18 Norte 0 -- -- 33
2020-09-30 15:00:00 28.3 3 Noroeste 10 Norte 0 -- -- 33
2020-09-30 14:00:00 27 3 Noroeste 10 Noroeste 0 -- -- 36
2020-09-30 13:00:00 25.4 3 Norte 9 Nordeste 0 -- -- 41
2020-09-30 12:00:00 23.5 2 Norte 8 Norte 0 -- -- 45
2020-09-30 11:00:00 21.8 2 Norte 7 Nordeste 0 -- -- 46
2020-09-30 10:00:00 19.4 3 Este 4 Este 0 -- -- 46
2020-09-30 09:00:00 17.4 0 Calma 7 Norte 0 -- -- 47
2020-09-30 08:00:00 17.3 3 Norte 8 Norte 0 -- -- 45
2020-09-30 07:00:00 17.7 5 Nordeste 8 Nordeste 0 -- -- 43
2020-09-30 06:00:00 18.5 0 Calma 7 Sur 0 -- -- 41
2020-09-30 05:00:00 18.6 5 Sur 11 Sur 0 -- -- 41
2020-09-30 04:00:00 18.6 6 Sur 11 Sur 0 -- -- 41
2020-09-30 03:00:00 18.5 6 Sur 14 Sudoeste 0 -- -- 39
2020-09-30 02:00:00 19 8 Sudoeste 11 Sudoeste 0 -- -- 37
2020-09-30 01:00:00 20.1 5 Sudoeste 12 Sudoeste 0 -- -- 35
2020-09-30 00:00:00 22.2 8 Sudoeste 16 Sudoeste 0 -- -- 36
2020-09-29 23:00:00 23.7 11 Sudoeste 22 Oeste 0 -- -- 31
2020-09-29 22:00:00 25.2 11 Oeste 22 Oeste 0 -- -- 29
2020-09-29 21:00:00 -- 3 Norte 13 Norte 0 -- -- 23
2020-09-29 20:00:00 30.4 10 Norte 22 Norte 0 -- -- 21
2020-09-29 19:00:00 32.5 3 Norte 15 Norte 0 -- -- 20
2020-09-29 18:00:00 33.7 2 Noroeste 15 Oeste 0 -- -- 20
2020-09-29 17:00:00 33.5 4 Noroeste 15 Nordeste 0 -- -- 20
2020-09-29 16:00:00 33.2 5 Nordeste 13 Nordeste 0 -- -- 20
2020-09-29 15:00:00 32.2 5 Norte 17 Norte 0 -- -- 22
2020-09-29 14:00:00 -- -- -- -- -- -- -- -- --
2020-09-29 13:00:00 -- -- -- -- -- -- -- -- --
2020-09-29 12:00:00 -- -- -- -- -- -- -- -- --
2020-09-29 11:00:00 -- -- -- -- -- -- -- -- --
2020-09-29 10:00:00 19.6 3 Este 5 Este 0 -- -- 39
2020-09-29 09:00:00 14.3 0 Calma 4 Sur 0 -- -- 45
2020-09-29 08:00:00 13.3 3 Sur 5 Sudeste 0 -- -- 46
2020-09-29 07:00:00 13.4 0 Calma 5 Sur 0 -- -- 44
2020-09-29 06:00:00 16.2 3 Norte 6 Noroeste 0 -- -- 43
2020-09-29 05:00:00 16.3 0 Calma 7 Este 0 -- -- 42
2020-09-29 04:00:00 18.4 3 Este 10 Nordeste 0 -- -- 38
2020-09-29 03:00:00 18.9 6 Nordeste 11 Nordeste 0 -- -- 35
2020-09-29 02:00:00 20.2 6 Sudoeste 15 Sudoeste 0 -- -- 33
2020-09-29 01:00:00 22.4 12 Sudoeste 21 Sudoeste 0 -- -- 32
2020-09-29 00:00:00 23.2 13 Sudoeste 23 Sudoeste 0 -- -- 31
2020-09-28 23:00:00 24 10 Sur 15 Sur 0 -- -- 29
2020-09-28 22:00:00 25.2 6 Este 13 Nordeste 0 -- -- 23
2020-09-28 21:00:00 27.1 8 Nordeste 15 Nordeste 0 -- -- 22
2020-09-28 20:00:00 29 10 Nordeste 17 Nordeste 0 -- -- 21
2020-09-28 19:00:00 30.5 10 Nordeste 19 Norte 0 -- -- 20
2020-09-28 18:00:00 31.4 10 Nordeste 21 Nordeste 0 -- -- 20
2020-09-28 17:00:00 31.3 11 Nordeste 22 Nordeste 0 -- -- 21
2020-09-28 16:00:00 30.8 9 Nordeste 24 Nordeste 0 -- -- 22
2020-09-28 15:00:00 30.4 13 Este 22 Nordeste 0 -- -- 23
2020-09-28 14:00:00 29.9 6 Este 21 Nordeste 0 -- -- 26
2020-09-28 13:00:00 28 7 Nordeste 17 Norte 0 -- -- 31
2020-09-28 12:00:00 25.4 9 Nordeste 14 Nordeste 0 -- -- 38
2020-09-28 11:00:00 23.6 8 Nordeste 16 Nordeste 0 -- -- 44
2020-09-28 10:00:00 20.5 5 Este 10 Este 0 -- -- 52
2020-09-28 09:00:00 14.8 6 Este 10 Este 0 -- -- 64
2020-09-28 08:00:00 14.6 5 Este 8 Este 0 -- -- 66
2020-09-28 07:00:00 14.6 0 Calma 4 Este 0 -- -- 63
2020-09-28 06:00:00 15.1 4 Este 5 Este 0 -- -- 63
2020-09-28 05:00:00 15.9 2 Sudeste 7 Este 0 -- -- 61
2020-09-28 04:00:00 16.6 3 Sur 7 Sudoeste 0 -- -- 60
2020-09-28 03:00:00 16.8 5 Sur 9 Sur 0 -- -- 60
2020-09-28 02:00:00 17.5 6 Sur 9 Sudoeste 0 -- -- 59
2020-09-28 01:00:00 18.6 6 Sudoeste 11 Sudoeste 0 -- -- 57
2020-09-28 00:00:00 20.1 5 Sudoeste 15 Sudoeste 0 -- -- 60
2020-09-27 23:00:00 20.9 9 Oeste 22 Oeste 0 -- -- 58
2020-09-27 22:00:00 21.6 11 Oeste 23 Oeste 0 -- -- 52
2020-09-27 21:00:00 25 4 Sudoeste 6 Oeste 0 -- -- 31
2020-09-27 20:00:00 26.6 2 Oeste 9 Nordeste 0 -- -- 30
2020-09-27 19:00:00 27.5 8 Este 16 Nordeste 0 -- -- 29
2020-09-27 18:00:00 27.9 9 Nordeste 20 Norte 0 -- -- 30
2020-09-27 17:00:00 27.4 10 Nordeste 24 Nordeste 0 -- -- 31
2020-09-27 16:00:00 26.7 6 Nordeste 23 Nordeste 0 -- -- 34
2020-09-27 15:00:00 26 7 Nordeste 26 Norte 0 -- -- 36
2020-09-27 14:00:00 24.5 12 Nordeste 23 Norte 0 -- -- 39
2020-09-27 13:00:00 24.2 12 Nordeste 24 Nordeste 0 -- -- 40
2020-09-27 12:00:00 23 7 Nordeste 21 Norte 0 -- -- 43
2020-09-27 11:00:00 21.4 5 Norte 10 Norte 0 -- -- 46
2020-09-27 10:00:00 19.6 2 Norte 5 Norte 0 -- -- 49
2020-09-27 09:00:00 15.5 0 Calma 5 Este 0 -- -- 52
2020-09-27 08:00:00 16.7 3 Nordeste 7 Nordeste 0 -- -- 52
2020-09-27 07:00:00 18.3 5 Nordeste 16 Nordeste 0 -- -- 49
2020-09-27 06:00:00 18.7 8 Nordeste 18 Norte 0 -- -- 47
2020-09-27 05:00:00 17.8 5 Norte 11 Norte 0 -- -- 47
2020-09-27 04:00:00 15.4 3 Sudoeste 8 Norte 0 -- -- 43
2020-09-27 03:00:00 15.7 3 Sur 5 Norte 0 -- -- 43
2020-09-27 02:00:00 17.3 3 Sur 7 Nordeste 0 -- -- 43
2020-09-27 01:00:00 18.6 0 Calma 7 Sur 0 -- -- 42
2020-09-27 00:00:00 19.1 5 Sur 9 Sudoeste 0 -- -- 41
2020-09-26 23:00:00 21.1 3 Sudoeste 10 Oeste 0 -- -- 41
2020-09-26 22:00:00 22.6 4 Oeste 14 Oeste 0 -- -- 35
2020-09-26 21:00:00 24.1 7 Oeste 16 Oeste 0 -- -- 28
2020-09-26 20:00:00 26.4 0 Calma 17 Oeste 0 -- -- 23
2020-09-26 19:00:00 27.6 3 Noroeste 18 Norte 0 -- -- 23
2020-09-26 18:00:00 27.8 5 Norte 21 Norte 0 -- -- 21
2020-09-26 17:00:00 27.4 10 Norte 20 Norte 0 -- -- 21
2020-09-26 16:00:00 27.2 6 Norte 22 Nordeste 0 -- -- 22
2020-09-26 15:00:00 26.8 13 Nordeste 26 Nordeste 0 -- -- 23
2020-09-26 14:00:00 24.5 7 Nordeste 17 Norte 0 -- -- 27
2020-09-26 13:00:00 23.3 8 Nordeste 18 Nordeste 0 -- -- 30
2020-09-26 12:00:00 21.4 10 Nordeste 19 Nordeste 0 -- -- 33
2020-09-26 11:00:00 19.5 13 Nordeste 18 Este 0 -- -- 37
2020-09-26 10:00:00 17.1 8 Nordeste 12 Nordeste 0 -- -- 41
2020-09-26 09:00:00 13.8 6 Nordeste 8 Nordeste 0 -- -- 45
2020-09-26 08:00:00 12 2 Sudeste 6 Sur 0 -- -- 43
2020-09-26 07:00:00 14.4 3 Este 5 Nordeste 0 -- -- 42
2020-09-26 06:00:00 15.1 4 Nordeste 8 Este 0 -- -- 40
2020-09-26 05:00:00 15.4 6 Nordeste 9 Nordeste 0 -- -- 38
2020-09-26 04:00:00 15.6 5 Nordeste 10 Este 0 -- -- 37
2020-09-26 03:00:00 16.9 6 Este 12 Este 0 -- -- 33
2020-09-26 02:00:00 18.5 5 Este 11 Nordeste 0 -- -- 31
2020-09-26 01:00:00 19.6 9 Nordeste 14 Nordeste 0 -- -- 30
2020-09-26 00:00:00 20.2 10 Nordeste 19 Nordeste 0 -- -- 29
2020-09-25 23:00:00 21.2 10 Nordeste 15 Nordeste 0 -- -- 28
2020-09-25 22:00:00 23 12 Norte 18 Norte 0 -- -- 27
2020-09-25 21:00:00 24.2 11 Norte 18 Norte 0 -- -- 26
2020-09-25 20:00:00 26.1 8 Norte 17 Norte 0 -- -- 25
2020-09-25 19:00:00 27.3 7 Norte 20 Norte 0 -- -- 24
2020-09-25 18:00:00 28.4 4 Noroeste 18 Norte 0 -- -- 24
2020-09-25 17:00:00 27 8 Norte 21 Norte 0 -- -- 26
2020-09-25 16:00:00 27.1 4 Noroeste 21 Noroeste 0 -- -- 28
2020-09-25 15:00:00 25.1 10 Norte 25 Norte 0 -- -- 30
2020-09-25 14:00:00 24.6 10 Norte 25 Nordeste 0 -- -- 31
2020-09-25 13:00:00 23.3 10 Nordeste 23 Nordeste 0 -- -- 35
2020-09-25 12:00:00 22 8 Norte 20 Nordeste 0 -- -- 38
2020-09-25 11:00:00 21.1 12 Nordeste 19 Nordeste 0 -- -- 43
2020-09-25 10:00:00 19.6 9 Nordeste 14 Nordeste 0 -- -- 50
2020-09-25 09:00:00 18.3 8 Nordeste 15 Nordeste 0 -- -- 53
2020-09-25 08:00:00 18.2 8 Nordeste 15 Norte 0 -- -- 54
2020-09-25 07:00:00 18.7 6 Nordeste 11 Norte 0 -- -- 60
2020-09-25 06:00:00 19.9 10 Nordeste 15 Nordeste 0 -- -- 62
2020-09-25 05:00:00 20.6 4 Nordeste 11 Norte 0 -- -- 64
2020-09-25 04:00:00 21.4 3 Norte 9 Norte 0 -- -- 60
2020-09-25 03:00:00 22.3 4 Norte 9 Norte 0 -- -- 57
2020-09-25 02:00:00 22.8 4 Nordeste 8 Nordeste 0 -- -- 51
2020-09-25 01:00:00 24 2 Nordeste 6 Norte 0 -- -- 47
2020-09-25 00:00:00 24 3 Nordeste 8 Nordeste 0 -- -- 45
2020-09-24 23:00:00 25 5 Nordeste 11 Nordeste 0 -- -- 42
2020-09-24 22:00:00 26.2 7 Nordeste 11 Nordeste 0 -- -- 40
2020-09-24 21:00:00 26.8 6 Nordeste 16 Nordeste 0 -- -- 38
2020-09-24 20:00:00 28.3 9 Norte 27 Norte 0 -- -- 34
2020-09-24 19:00:00 30 15 Norte 26 Norte 0 -- -- 29
2020-09-24 18:00:00 31.2 5 Noroeste 19 Noroeste 0 -- -- 28
2020-09-24 17:00:00 31.3 6 Norte 23 Norte 0 -- -- 28
2020-09-24 16:00:00 30.4 11 Norte 26 Norte 0 -- -- 30
2020-09-24 15:00:00 30.8 6 Norte 21 Norte 0 -- -- 31
2020-09-24 14:00:00 29.3 4 Norte 10 Nordeste 0 -- -- 35
2020-09-24 13:00:00 28.5 5 Norte 13 Norte 0 -- -- 40
2020-09-24 12:00:00 26.8 5 Norte 11 Norte 0 -- -- 46
2020-09-24 11:00:00 25.1 6 Nordeste 12 Nordeste 0 -- -- 52
2020-09-24 10:00:00 22 8 Nordeste 11 Nordeste 0 -- -- 64
2020-09-24 09:00:00 20.1 5 Este 9 Este 0 -- -- 70
2020-09-24 08:00:00 20.1 3 Nordeste 4 Nordeste 0 -- -- 67
2020-09-24 07:00:00 20.3 0 Calma 8 Sudeste 0 -- -- 65
2020-09-24 06:00:00 20.1 4 Sudeste 6 Sudeste 0 -- -- 64
2020-09-24 05:00:00 19.6 3 Sur 6 Sudoeste 0 -- -- 63
2020-09-24 04:00:00 19.8 0 Calma 9 Sudoeste 0 -- -- 62
2020-09-24 03:00:00 20 5 Sudoeste 8 Sudoeste 0 -- -- 63
2020-09-24 02:00:00 20.6 6 Sudoeste 9 Sudoeste 0 -- -- 63
2020-09-24 01:00:00 20.6 5 Sudoeste 7 Sur 0 -- -- 62
2020-09-24 00:00:00 22 2 Sudoeste 14 Sudoeste 0 -- -- 62
2020-09-23 23:00:00 22.8 6 Oeste 18 Oeste 0 -- -- 58
2020-09-23 22:00:00 23.7 6 Oeste 15 Oeste 0 -- -- 52
2020-09-23 21:00:00 24.9 5 Oeste 21 Oeste 0 -- -- 45
2020-09-23 20:00:00 26.3 11 Oeste 18 Oeste 0 -- -- 40
2020-09-23 19:00:00 27.4 4 Oeste 18 Sudoeste 0 -- -- 38
2020-09-23 18:00:00 28.3 5 Oeste 18 Sudoeste 0 -- -- 37
2020-09-23 17:00:00 28 4 Oeste 22 Oeste 0 -- -- 38
2020-09-23 16:00:00 28.2 6 Oeste 23 Sudoeste 0 -- -- 38
2020-09-23 15:00:00 26.6 8 Oeste 21 Oeste 0 -- -- 40
2020-09-23 14:00:00 25.9 13 Oeste 30 Sudoeste 0 -- -- 41
2020-09-23 13:00:00 25.4 13 Sudoeste 30 Oeste 0 -- -- 43
2020-09-23 12:00:00 24.3 8 Oeste 20 Oeste 0 -- -- 47
2020-09-23 11:00:00 22.5 9 Oeste 20 Sudoeste 0 -- -- 54
2020-09-23 10:00:00 21.2 11 Sudoeste 20 Sudoeste 0 -- -- 60
2020-09-23 09:00:00 19.8 8 Sudoeste 16 Noroeste 0 -- -- 65
2020-09-23 08:00:00 20.3 5 Sudoeste 15 Sudoeste 0 -- -- 67
2020-09-23 07:00:00 20.3 10 Sudoeste 22 Sudoeste 0 -- -- 67
2020-09-23 06:00:00 20 13 Sudoeste 23 Sudoeste 0 -- -- 67
2020-09-23 05:00:00 19.8 13 Sudoeste 18 Sudoeste 0 -- -- 62
2020-09-23 04:00:00 19.5 12 Sudoeste 17 Sudoeste 0 -- -- 58
2020-09-23 03:00:00 19.8 14 Sudoeste 19 Sudoeste 0 -- -- 55
2020-09-23 02:00:00 20 8 Sudoeste 12 Sudoeste 0 -- -- 56
2020-09-23 01:00:00 20.7 8 Sudoeste 13 Sudoeste 0 -- -- 56
2020-09-23 00:00:00 21.6 6 Sudoeste 20 Sudoeste 0 -- -- 53
2020-09-22 23:00:00 22.2 12 Oeste 20 Sudoeste 0 -- -- 49
2020-09-22 22:00:00 22.9 9 Oeste 21 Oeste 0 -- -- 45
2020-09-22 21:00:00 24.1 10 Oeste 25 Oeste 0 -- -- 38
2020-09-22 20:00:00 25.9 7 Oeste 25 Oeste 0 -- -- 34
2020-09-22 19:00:00 27.9 14 Oeste 24 Oeste 0 -- -- 29
2020-09-22 18:00:00 29.8 8 Oeste 22 Oeste 0 -- -- 26
2020-09-22 17:00:00 29.5 10 Oeste 21 Oeste 0 -- -- 27
2020-09-22 16:00:00 29.8 8 Oeste 17 Oeste 0 -- -- 25
2020-09-22 15:00:00 29.6 5 Norte 21 Oeste 0 -- -- 26
2020-09-22 14:00:00 28.7 2 Este 12 Este 0 -- -- 28
2020-09-22 13:00:00 26.3 6 Este 15 Nordeste 0 -- -- 35
2020-09-22 12:00:00 24.4 10 Nordeste 15 Nordeste 0 -- -- 39
2020-09-22 11:00:00 23.6 6 Nordeste 11 Nordeste 0 -- -- 42
2020-09-22 10:00:00 20.3 0 Calma 5 Este 0 -- -- 59
2020-09-22 09:00:00 16 3 Sudeste 4 Sudeste 0 -- -- 70
2020-09-22 08:00:00 15.6 2 Sur 5 Este 0 -- -- 69
2020-09-22 07:00:00 16.6 3 Este 5 Este 0 -- -- 68
2020-09-22 06:00:00 17 0 Calma 4 Sudeste 0 -- -- 65
2020-09-22 05:00:00 17.7 0 Calma 2 Sur 0 -- -- 63
2020-09-22 04:00:00 18.7 0 Calma 3 Sudeste 0 -- -- 61
2020-09-22 03:00:00 19.1 0 Calma 5 Sur 0 -- -- 58
2020-09-22 02:00:00 20.1 2 Sur 10 Sudoeste 0 -- -- 56
2020-09-22 01:00:00 21.2 7 Sudoeste 19 Sudoeste 0 -- -- 54
2020-09-22 00:00:00 22 12 Sudoeste 25 Oeste 0 -- -- 50
2020-09-21 23:00:00 22.7 11 Oeste 22 Oeste 0 -- -- 48
2020-09-21 22:00:00 24.1 10 Oeste 20 Oeste 0 -- -- 42
2020-09-21 21:00:00 26.6 8 Oeste 16 Oeste 0 -- -- 32
2020-09-21 20:00:00 28.3 0 Calma 11 Norte 0 -- -- 28
2020-09-21 19:00:00 30 3 Noroeste 13 Nordeste 0 -- -- 27
2020-09-21 18:00:00 29.4 8 Norte 15 Norte 0 -- -- 27
2020-09-21 17:00:00 29.4 5 Nordeste 15 Norte 0 -- -- 27
2020-09-21 16:00:00 29.2 3 Nordeste 19 Nordeste 0 -- -- 30
2020-09-21 15:00:00 27.8 5 Norte 17 Este 0 -- -- 31
2020-09-21 14:00:00 26.6 12 Nordeste 21 Nordeste 0 -- -- 37
2020-09-21 13:00:00 25.1 11 Nordeste 18 Nordeste 0 -- -- 41
2020-09-21 12:00:00 23.5 9 Este 15 Este 0 -- -- 49
2020-09-21 11:00:00 21.2 8 Nordeste 10 Nordeste 0 -- -- 63
2020-09-21 10:00:00 19.8 4 Este 6 Este 0 -- -- 67
2020-09-21 09:00:00 18.5 0 Calma 8 Sudeste 0 -- -- 71
2020-09-21 08:00:00 17.8 4 Sudeste 6 Sudeste 0 -- -- 71
2020-09-21 07:00:00 18 0 Calma 5 Sudoeste 0 -- -- 71
2020-09-21 06:00:00 17.5 3 Sur 4 Sur 0 -- -- 70
2020-09-21 05:00:00 18.1 0 Calma 7 Sudoeste 0 -- -- 70
2020-09-21 04:00:00 18.2 5 Sudoeste 8 Sudoeste 0 -- -- 70
2020-09-21 03:00:00 18.6 4 Sur 9 Sur 0 -- -- 69
2020-09-21 02:00:00 18.8 5 Sur 8 Sur 0 -- -- 68
2020-09-21 01:00:00 19.7 6 Sur 8 Sudoeste 0 -- -- 66
2020-09-21 00:00:00 20.2 4 Sur 16 Oeste 0 -- -- 66
2020-09-20 23:00:00 20.8 7 Oeste 13 Oeste 0 -- -- 64
2020-09-20 22:00:00 22.1 3 Oeste 15 Noroeste 0 -- -- 55
2020-09-20 21:00:00 24.3 5 Oeste 12 Oeste 0 -- -- 42
2020-09-20 20:00:00 25.8 7 Oeste 14 Oeste 0 -- -- 36
2020-09-20 19:00:00 27 3 Oeste 11 Oeste 0 -- -- 33
2020-09-20 18:00:00 27.9 4 Noroeste 15 Oeste 0 -- -- 32
2020-09-20 17:00:00 27.9 4 Noroeste 17 Norte 0 -- -- 34
2020-09-20 16:00:00 26.9 4 Norte 17 Norte 0 -- -- 38
2020-09-20 15:00:00 26 5 Norte 14 Norte 0 -- -- 38
2020-09-20 14:00:00 25.3 3 Noroeste 10 Norte 0 -- -- 42
2020-09-20 13:00:00 24 3 Nordeste 8 Noroeste 0 -- -- 47
2020-09-20 12:00:00 22.1 3 Norte 9 Norte 0 -- -- 59
2020-09-20 11:00:00 20.5 4 Sudeste 7 Sur 0 -- -- 65
2020-09-20 10:00:00 18.3 0 Calma 5 Sur 0 -- -- 77
2020-09-20 09:00:00 15.9 3 Sur 5 Sur 0 -- -- 78
2020-09-20 08:00:00 15.6 3 Sur 6 Sur 0 -- -- 77
2020-09-20 07:00:00 16 3 Sudeste 6 Sudoeste 0 -- -- 77
2020-09-20 06:00:00 16.6 5 Sudoeste 9 Sudoeste 0 -- -- 78
2020-09-20 05:00:00 16.9 4 Sudoeste 8 Sudoeste 0 -- -- 78
2020-09-20 04:00:00 17 3 Sudoeste 10 Sudoeste 0 -- -- 77
2020-09-20 03:00:00 17.7 7 Sudoeste 13 Sur 0 -- -- 77
2020-09-20 02:00:00 17.6 6 Sudoeste 11 Sudoeste 0 -- -- 77
2020-09-20 01:00:00 18.1 7 Sudoeste 12 Sudoeste 0 -- -- 76
2020-09-20 00:00:00 18.3 9 Sudoeste 13 Sudoeste 0 -- -- 74